sensor_id;sensor_type;location;lat;lon;timestamp;temperature;humidity
14188;DHT22;7175;51.978;5.330;2022-07-29T00:01:42;17.10;99.90
14188;DHT22;7175;51.978;5.330;2022-07-29T00:04:10;17.10;99.90
14188;DHT22;7175;51.978;5.330;2022-07-29T00:06:41;17.10;99.90
14188;DHT22;7175;51.978;5.330;2022-07-29T00:09:10;17.00;99.90
14188;DHT22;7175;51.978;5.330;2022-07-29T00:11:38;17.10;99.90
14188;DHT22;7175;51.978;5.330;2022-07-29T00:14:07;17.10;99.90
14188;DHT22;7175;51.978;5.330;2022-07-29T00:16:35;17.10;99.90
14188;DHT22;7175;51.978;5.330;2022-07-29T00:19:04;16.90;99.90
14188;DHT22;7175;51.978;5.330;2022-07-29T00:21:33;16.90;99.90
14188;DHT22;7175;51.978;5.330;2022-07-29T00:24:04;17.00;99.90
14188;DHT22;7175;51.978;5.330;2022-07-29T00:26:32;16.90;99.90
14188;DHT22;7175;51.978;5.330;2022-07-29T00:29:02;16.80;99.90
14188;DHT22;7175;51.978;5.330;2022-07-29T00:31:51;16.80;99.90
14188;DHT22;7175;51.978;5.330;2022-07-29T00:34:19;16.70;99.90
14188;DHT22;7175;51.978;5.330;2022-07-29T00:37:05;16.80;99.90
14188;DHT22;7175;51.978;5.330;2022-07-29T00:39:35;16.80;99.90
14188;DHT22;7175;51.978;5.330;2022-07-29T00:42:04;16.80;99.90
14188;DHT22;7175;51.978;5.330;2022-07-29T00:44:36;16.70;99.90
14188;DHT22;7175;51.978;5.330;2022-07-29T00:47:05;16.60;99.90
14188;DHT22;7175;51.978;5.330;2022-07-29T00:49:34;16.50;99.90
14188;DHT22;7175;51.978;5.330;2022-07-29T00:52:04;16.60;99.90
14188;DHT22;7175;51.978;5.330;2022-07-29T00:54:35;16.50;99.90
14188;DHT22;7175;51.978;5.330;2022-07-29T00:57:11;16.40;99.90
14188;DHT22;7175;51.978;5.330;2022-07-29T00:59:40;16.50;99.90
14188;DHT22;7175;51.978;5.330;2022-07-29T01:02:08;16.40;99.90
14188;DHT22;7175;51.978;5.330;2022-07-29T01:04:37;16.50;99.90
14188;DHT22;7175;51.978;5.330;2022-07-29T01:07:07;16.40;99.90
14188;DHT22;7175;51.978;5.330;2022-07-29T01:09:39;16.50;99.90
14188;DHT22;7175;51.978;5.330;2022-07-29T01:12:16;16.60;99.90
14188;DHT22;7175;51.978;5.330;2022-07-29T01:14:46;16.40;99.90
14188;DHT22;7175;51.978;5.330;2022-07-29T01:17:20;16.30;99.90
14188;DHT22;7175;51.978;5.330;2022-07-29T01:20:06;16.20;99.90
14188;DHT22;7175;51.978;5.330;2022-07-29T01:26:04;16.30;99.90
14188;DHT22;7175;51.978;5.330;2022-07-29T01:28:56;16.40;99.90
14188;DHT22;7175;51.978;5.330;2022-07-29T01:31:39;16.30;99.90
14188;DHT22;7175;51.978;5.330;2022-07-29T01:34:31;16.40;99.90
14188;DHT22;7175;51.978;5.330;2022-07-29T01:37:08;16.30;99.90
14188;DHT22;7175;51.978;5.330;2022-07-29T01:39:43;16.20;99.90
14188;DHT22;7175;51.978;5.330;2022-07-29T01:42:18;16.10;99.90
14188;DHT22;7175;51.978;5.330;2022-07-29T01:44:55;16.20;99.90
14188;DHT22;7175;51.978;5.330;2022-07-29T01:47:37;16.20;99.90
14188;DHT22;7175;51.978;5.330;2022-07-29T01:50:10;16.20;99.90
14188;DHT22;7175;51.978;5.330;2022-07-29T01:52:43;16.30;99.90
14188;DHT22;7175;51.978;5.330;2022-07-29T01:55:15;16.30;99.90
14188;DHT22;7175;51.978;5.330;2022-07-29T01:57:46;16.30;99.90
14188;DHT22;7175;51.978;5.330;2022-07-29T02:00:17;16.20;99.90
14188;DHT22;7175;51.978;5.330;2022-07-29T02:02:47;16.00;99.90
14188;DHT22;7175;51.978;5.330;2022-07-29T02:05:18;16.00;99.90
14188;DHT22;7175;51.978;5.330;2022-07-29T02:07:49;16.20;99.90
14188;DHT22;7175;51.978;5.330;2022-07-29T02:10:23;16.00;99.90
14188;DHT22;7175;51.978;5.330;2022-07-29T02:12:53;16.00;99.90
14188;DHT22;7175;51.978;5.330;2022-07-29T02:15:25;16.00;99.90
14188;DHT22;7175;51.978;5.330;2022-07-29T02:17:58;15.90;99.90
14188;DHT22;7175;51.978;5.330;2022-07-29T02:20:28;16.20;99.90
14188;DHT22;7175;51.978;5.330;2022-07-29T02:22:57;16.00;99.90
14188;DHT22;7175;51.978;5.330;2022-07-29T02:25:27;15.90;99.90
14188;DHT22;7175;51.978;5.330;2022-07-29T02:28:05;16.00;99.90
14188;DHT22;7175;51.978;5.330;2022-07-29T02:30:40;16.00;99.90
14188;DHT22;7175;51.978;5.330;2022-07-29T02:33:12;16.00;99.90
14188;DHT22;7175;51.978;5.330;2022-07-29T02:35:45;16.10;99.90
14188;DHT22;7175;51.978;5.330;2022-07-29T02:38:15;16.10;99.90
14188;DHT22;7175;51.978;5.330;2022-07-29T02:41:05;16.10;99.90
14188;DHT22;7175;51.978;5.330;2022-07-29T02:43:36;16.10;99.90
14188;DHT22;7175;51.978;5.330;2022-07-29T02:46:11;16.00;99.90
14188;DHT22;7175;51.978;5.330;2022-07-29T02:49:00;15.90;99.90
14188;DHT22;7175;51.978;5.330;2022-07-29T02:51:40;16.00;99.90
14188;DHT22;7175;51.978;5.330;2022-07-29T02:54:14;15.90;99.90
14188;DHT22;7175;51.978;5.330;2022-07-29T02:56:46;16.00;99.90
14188;DHT22;7175;51.978;5.330;2022-07-29T02:59:22;15.90;99.90
14188;DHT22;7175;51.978;5.330;2022-07-29T03:01:54;15.90;99.90
14188;DHT22;7175;51.978;5.330;2022-07-29T03:04:25;16.00;99.90
14188;DHT22;7175;51.978;5.330;2022-07-29T03:06:59;16.00;99.90
14188;DHT22;7175;51.978;5.330;2022-07-29T03:09:28;16.00;99.90
14188;DHT22;7175;51.978;5.330;2022-07-29T03:11:58;15.90;99.90
14188;DHT22;7175;51.978;5.330;2022-07-29T03:14:27;16.00;99.90
14188;DHT22;7175;51.978;5.330;2022-07-29T03:16:57;16.00;99.90
14188;DHT22;7175;51.978;5.330;2022-07-29T03:19:26;16.10;99.90
14188;DHT22;7175;51.978;5.330;2022-07-29T03:21:56;16.10;99.90
14188;DHT22;7175;51.978;5.330;2022-07-29T03:24:30;16.00;99.90
14188;DHT22;7175;51.978;5.330;2022-07-29T03:26:59;16.10;99.90
14188;DHT22;7175;51.978;5.330;2022-07-29T03:29:28;16.00;99.90
14188;DHT22;7175;51.978;5.330;2022-07-29T03:32:03;16.00;99.90
14188;DHT22;7175;51.978;5.330;2022-07-29T03:34:35;16.00;99.90
14188;DHT22;7175;51.978;5.330;2022-07-29T03:37:03;16.00;99.90
14188;DHT22;7175;51.978;5.330;2022-07-29T03:39:36;16.00;99.90
14188;DHT22;7175;51.978;5.330;2022-07-29T03:42:07;16.00;99.90
14188;DHT22;7175;51.978;5.330;2022-07-29T03:44:37;16.00;99.90
14188;DHT22;7175;51.978;5.330;2022-07-29T03:47:09;15.90;99.90
14188;DHT22;7175;51.978;5.330;2022-07-29T03:49:39;16.00;99.90
14188;DHT22;7175;51.978;5.330;2022-07-29T03:52:08;16.00;99.90
14188;DHT22;7175;51.978;5.330;2022-07-29T03:54:36;16.00;99.90
14188;DHT22;7175;51.978;5.330;2022-07-29T03:57:06;16.00;99.90
14188;DHT22;7175;51.978;5.330;2022-07-29T03:59:37;15.80;99.90
14188;DHT22;7175;51.978;5.330;2022-07-29T04:02:09;15.80;99.90
14188;DHT22;7175;51.978;5.330;2022-07-29T04:04:40;15.80;99.90
14188;DHT22;7175;51.978;5.330;2022-07-29T04:07:11;15.80;99.90
14188;DHT22;7175;51.978;5.330;2022-07-29T04:09:40;15.80;99.90
14188;DHT22;7175;51.978;5.330;2022-07-29T04:12:09;15.90;99.90
14188;DHT22;7175;51.978;5.330;2022-07-29T04:14:38;15.90;99.90
14188;DHT22;7175;51.978;5.330;2022-07-29T04:17:08;15.90;99.90
14188;DHT22;7175;51.978;5.330;2022-07-29T04:19:36;15.90;99.90
14188;DHT22;7175;51.978;5.330;2022-07-29T04:22:06;15.90;99.90
14188;DHT22;7175;51.978;5.330;2022-07-29T04:24:34;15.90;99.90
14188;DHT22;7175;51.978;5.330;2022-07-29T04:27:03;15.90;99.90
14188;DHT22;7175;51.978;5.330;2022-07-29T04:29:31;15.80;99.90
14188;DHT22;7175;51.978;5.330;2022-07-29T04:32:00;15.90;99.90
14188;DHT22;7175;51.978;5.330;2022-07-29T04:34:29;15.90;99.90
14188;DHT22;7175;51.978;5.330;2022-07-29T04:36:58;15.90;99.90
14188;DHT22;7175;51.978;5.330;2022-07-29T04:39:26;16.00;99.90
14188;DHT22;7175;51.978;5.330;2022-07-29T04:41:56;16.00;99.90
14188;DHT22;7175;51.978;5.330;2022-07-29T04:44:24;16.00;99.90
14188;DHT22;7175;51.978;5.330;2022-07-29T04:46:56;15.90;99.90
14188;DHT22;7175;51.978;5.330;2022-07-29T04:49:25;15.90;99.90
14188;DHT22;7175;51.978;5.330;2022-07-29T04:51:54;16.00;99.90
14188;DHT22;7175;51.978;5.330;2022-07-29T04:54:23;16.00;99.90
14188;DHT22;7175;51.978;5.330;2022-07-29T04:56:52;16.10;99.90
14188;DHT22;7175;51.978;5.330;2022-07-29T04:59:20;16.10;99.90
14188;DHT22;7175;51.978;5.330;2022-07-29T05:01:49;16.20;99.90
14188;DHT22;7175;51.978;5.330;2022-07-29T05:04:17;16.20;99.90
14188;DHT22;7175;51.978;5.330;2022-07-29T05:06:47;16.20;99.90
14188;DHT22;7175;51.978;5.330;2022-07-29T05:09:17;16.20;99.90
14188;DHT22;7175;51.978;5.330;2022-07-29T05:11:45;16.20;99.90
14188;DHT22;7175;51.978;5.330;2022-07-29T05:14:14;16.10;99.90
14188;DHT22;7175;51.978;5.330;2022-07-29T05:16:43;16.10;99.90
14188;DHT22;7175;51.978;5.330;2022-07-29T05:19:11;16.00;99.90
14188;DHT22;7175;51.978;5.330;2022-07-29T05:21:40;16.00;99.90
14188;DHT22;7175;51.978;5.330;2022-07-29T05:24:09;16.00;99.90
14188;DHT22;7175;51.978;5.330;2022-07-29T05:26:40;16.10;99.90
14188;DHT22;7175;51.978;5.330;2022-07-29T05:29:08;16.10;99.90
14188;DHT22;7175;51.978;5.330;2022-07-29T05:31:57;16.10;99.90
14188;DHT22;7175;51.978;5.330;2022-07-29T05:34:26;16.10;99.90
14188;DHT22;7175;51.978;5.330;2022-07-29T05:36:54;16.10;99.90
14188;DHT22;7175;51.978;5.330;2022-07-29T05:39:23;16.10;99.90
14188;DHT22;7175;51.978;5.330;2022-07-29T05:42:13;16.20;99.90
14188;DHT22;7175;51.978;5.330;2022-07-29T05:44:41;16.10;99.90
14188;DHT22;7175;51.978;5.330;2022-07-29T05:47:10;16.10;99.90
14188;DHT22;7175;51.978;5.330;2022-07-29T05:49:38;16.10;99.90
14188;DHT22;7175;51.978;5.330;2022-07-29T05:52:09;16.20;99.90
14188;DHT22;7175;51.978;5.330;2022-07-29T05:54:37;16.40;99.90
14188;DHT22;7175;51.978;5.330;2022-07-29T05:57:07;16.30;99.90
14188;DHT22;7175;51.978;5.330;2022-07-29T05:59:37;16.20;99.90
14188;DHT22;7175;51.978;5.330;2022-07-29T06:02:06;16.40;99.90
14188;DHT22;7175;51.978;5.330;2022-07-29T06:04:34;16.50;99.90
14188;DHT22;7175;51.978;5.330;2022-07-29T06:07:03;16.50;99.90
14188;DHT22;7175;51.978;5.330;2022-07-29T06:09:31;16.50;99.90
14188;DHT22;7175;51.978;5.330;2022-07-29T06:12:03;16.50;99.90
14188;DHT22;7175;51.978;5.330;2022-07-29T06:14:32;16.60;99.90
14188;DHT22;7175;51.978;5.330;2022-07-29T06:17:02;16.70;99.90
14188;DHT22;7175;51.978;5.330;2022-07-29T06:19:33;16.60;99.90
14188;DHT22;7175;51.978;5.330;2022-07-29T06:22:03;16.90;99.90
14188;DHT22;7175;51.978;5.330;2022-07-29T06:24:32;17.30;99.90
14188;DHT22;7175;51.978;5.330;2022-07-29T06:27:01;16.80;99.90
14188;DHT22;7175;51.978;5.330;2022-07-29T06:29:30;17.00;99.90
14188;DHT22;7175;51.978;5.330;2022-07-29T06:31:58;16.80;99.90
14188;DHT22;7175;51.978;5.330;2022-07-29T06:34:29;16.90;99.90
14188;DHT22;7175;51.978;5.330;2022-07-29T06:36:57;17.20;99.90
14188;DHT22;7175;51.978;5.330;2022-07-29T06:39:27;17.30;99.90
14188;DHT22;7175;51.978;5.330;2022-07-29T06:41:55;17.30;99.90
14188;DHT22;7175;51.978;5.330;2022-07-29T06:44:25;17.50;99.90
14188;DHT22;7175;51.978;5.330;2022-07-29T06:46:54;17.70;99.90
14188;DHT22;7175;51.978;5.330;2022-07-29T06:49:23;17.40;99.90
14188;DHT22;7175;51.978;5.330;2022-07-29T06:51:55;17.50;99.90
14188;DHT22;7175;51.978;5.330;2022-07-29T06:54:23;17.70;99.90
14188;DHT22;7175;51.978;5.330;2022-07-29T06:56:52;17.80;99.90
14188;DHT22;7175;51.978;5.330;2022-07-29T06:59:21;18.20;99.90
14188;DHT22;7175;51.978;5.330;2022-07-29T07:02:01;18.40;99.90
14188;DHT22;7175;51.978;5.330;2022-07-29T07:04:29;18.10;99.90
14188;DHT22;7175;51.978;5.330;2022-07-29T07:07:00;18.00;99.90
14188;DHT22;7175;51.978;5.330;2022-07-29T07:09:29;18.10;99.90
14188;DHT22;7175;51.978;5.330;2022-07-29T07:12:07;18.00;99.90
14188;DHT22;7175;51.978;5.330;2022-07-29T07:14:35;17.90;99.90
14188;DHT22;7175;51.978;5.330;2022-07-29T07:17:04;18.00;99.90
14188;DHT22;7175;51.978;5.330;2022-07-29T07:19:34;18.30;99.90
14188;DHT22;7175;51.978;5.330;2022-07-29T07:22:04;18.00;99.90
14188;DHT22;7175;51.978;5.330;2022-07-29T07:24:33;18.60;99.90
14188;DHT22;7175;51.978;5.330;2022-07-29T07:27:01;19.50;99.90
14188;DHT22;7175;51.978;5.330;2022-07-29T07:29:30;19.60;99.90
14188;DHT22;7175;51.978;5.330;2022-07-29T07:31:58;19.40;99.90
14188;DHT22;7175;51.978;5.330;2022-07-29T07:34:27;19.40;99.90
14188;DHT22;7175;51.978;5.330;2022-07-29T07:36:56;19.20;99.90
14188;DHT22;7175;51.978;5.330;2022-07-29T07:39:26;19.50;99.90
14188;DHT22;7175;51.978;5.330;2022-07-29T07:41:55;19.70;99.90
14188;DHT22;7175;51.978;5.330;2022-07-29T07:44:23;19.80;99.90
14188;DHT22;7175;51.978;5.330;2022-07-29T07:46:52;20.10;99.90
14188;DHT22;7175;51.978;5.330;2022-07-29T07:49:20;19.90;99.70
14188;DHT22;7175;51.978;5.330;2022-07-29T07:51:49;20.00;99.90
14188;DHT22;7175;51.978;5.330;2022-07-29T07:54:18;19.90;99.90
14188;DHT22;7175;51.978;5.330;2022-07-29T07:56:48;20.00;99.90
14188;DHT22;7175;51.978;5.330;2022-07-29T07:59:21;20.10;99.50
14188;DHT22;7175;51.978;5.330;2022-07-29T08:01:50;20.10;99.30
14188;DHT22;7175;51.978;5.330;2022-07-29T08:04:22;20.10;99.70
14188;DHT22;7175;51.978;5.330;2022-07-29T08:06:55;19.90;99.50
14188;DHT22;7175;51.978;5.330;2022-07-29T08:09:25;20.40;99.90
14188;DHT22;7175;51.978;5.330;2022-07-29T08:11:58;20.70;98.50
14188;DHT22;7175;51.978;5.330;2022-07-29T08:14:30;20.80;98.30
14188;DHT22;7175;51.978;5.330;2022-07-29T08:16:58;21.40;97.50
14188;DHT22;7175;51.978;5.330;2022-07-29T08:19:27;21.50;97.10
14188;DHT22;7175;51.978;5.330;2022-07-29T08:21:56;21.40;96.70
14188;DHT22;7175;51.978;5.330;2022-07-29T08:24:25;21.50;96.50
14188;DHT22;7175;51.978;5.330;2022-07-29T08:27:13;21.50;95.90
14188;DHT22;7175;51.978;5.330;2022-07-29T08:30:02;21.20;97.00
14188;DHT22;7175;51.978;5.330;2022-07-29T08:32:30;21.10;96.90
14188;DHT22;7175;51.978;5.330;2022-07-29T08:35:20;21.30;96.60
14188;DHT22;7175;51.978;5.330;2022-07-29T08:37:49;21.20;97.10
14188;DHT22;7175;51.978;5.330;2022-07-29T08:40:17;21.20;97.30
14188;DHT22;7175;51.978;5.330;2022-07-29T08:42:57;20.90;96.70
14188;DHT22;7175;51.978;5.330;2022-07-29T08:45:29;21.10;97.30
14188;DHT22;7175;51.978;5.330;2022-07-29T08:48:12;21.10;97.40
14188;DHT22;7175;51.978;5.330;2022-07-29T08:50:41;21.30;97.00
14188;DHT22;7175;51.978;5.330;2022-07-29T08:56:40;22.20;96.70
14188;DHT22;7175;51.978;5.330;2022-07-29T08:59:16;22.70;95.20
14188;DHT22;7175;51.978;5.330;2022-07-29T09:02:08;22.90;94.00
14188;DHT22;7175;51.978;5.330;2022-07-29T09:04:40;23.00;94.30
14188;DHT22;7175;51.978;5.330;2022-07-29T09:07:41;23.20;92.60
14188;DHT22;7175;51.978;5.330;2022-07-29T09:10:10;23.30;93.10
14188;DHT22;7175;51.978;5.330;2022-07-29T09:12:41;22.80;93.50
14188;DHT22;7175;51.978;5.330;2022-07-29T09:15:23;22.70;94.00
14188;DHT22;7175;51.978;5.330;2022-07-29T09:18:02;23.20;93.70
14188;DHT22;7175;51.978;5.330;2022-07-29T09:20:31;23.40;92.00
14188;DHT22;7175;51.978;5.330;2022-07-29T09:23:13;23.40;91.10
14188;DHT22;7175;51.978;5.330;2022-07-29T09:25:50;23.40;91.10
14188;DHT22;7175;51.978;5.330;2022-07-29T09:28:19;23.60;90.80
14188;DHT22;7175;51.978;5.330;2022-07-29T09:30:52;23.70;89.10
14188;DHT22;7175;51.978;5.330;2022-07-29T09:33:21;23.80;88.80
14188;DHT22;7175;51.978;5.330;2022-07-29T09:35:59;24.10;89.70
14188;DHT22;7175;51.978;5.330;2022-07-29T09:38:31;24.90;89.20
14188;DHT22;7175;51.978;5.330;2022-07-29T09:41:03;24.80;86.60
14188;DHT22;7175;51.978;5.330;2022-07-29T09:43:34;25.20;85.10
14188;DHT22;7175;51.978;5.330;2022-07-29T09:46:11;25.10;84.60
14188;DHT22;7175;51.978;5.330;2022-07-29T09:48:40;25.20;82.60
14188;DHT22;7175;51.978;5.330;2022-07-29T09:51:17;24.60;81.40
14188;DHT22;7175;51.978;5.330;2022-07-29T09:53:52;25.10;84.60
14188;DHT22;7175;51.978;5.330;2022-07-29T09:56:37;25.60;83.40
14188;DHT22;7175;51.978;5.330;2022-07-29T09:59:06;25.80;80.40
14188;DHT22;7175;51.978;5.330;2022-07-29T10:01:37;24.70;75.70
14188;DHT22;7175;51.978;5.330;2022-07-29T10:04:06;25.30;81.40
14188;DHT22;7175;51.978;5.330;2022-07-29T10:06:35;25.90;78.10
14188;DHT22;7175;51.978;5.330;2022-07-29T10:09:16;25.90;76.40
14188;DHT22;7175;51.978;5.330;2022-07-29T10:12:03;26.00;73.50
14188;DHT22;7175;51.978;5.330;2022-07-29T10:14:31;26.10;75.40
14188;DHT22;7175;51.978;5.330;2022-07-29T10:17:03;26.50;74.70
14188;DHT22;7175;51.978;5.330;2022-07-29T10:19:32;26.80;70.90
14188;DHT22;7175;51.978;5.330;2022-07-29T10:22:06;26.20;72.50
14188;DHT22;7175;51.978;5.330;2022-07-29T10:24:35;25.70;71.00
14188;DHT22;7175;51.978;5.330;2022-07-29T10:27:05;25.80;72.60
14188;DHT22;7175;51.978;5.330;2022-07-29T10:29:34;26.40;72.30
14188;DHT22;7175;51.978;5.330;2022-07-29T10:32:26;26.10;67.50
14188;DHT22;7175;51.978;5.330;2022-07-29T10:38:30;26.80;68.70
14188;DHT22;7175;51.978;5.330;2022-07-29T10:41:16;27.00;65.10
14188;DHT22;7175;51.978;5.330;2022-07-29T10:44:14;26.90;65.80
14188;DHT22;7175;51.978;5.330;2022-07-29T10:46:45;26.50;63.80
14188;DHT22;7175;51.978;5.330;2022-07-29T10:49:17;26.80;64.80
14188;DHT22;7175;51.978;5.330;2022-07-29T10:51:58;27.30;66.90
14188;DHT22;7175;51.978;5.330;2022-07-29T10:54:38;27.40;65.30
14188;DHT22;7175;51.978;5.330;2022-07-29T10:57:14;27.50;67.20
14188;DHT22;7175;51.978;5.330;2022-07-29T10:59:43;27.60;62.10
14188;DHT22;7175;51.978;5.330;2022-07-29T11:02:45;27.30;59.90
14188;DHT22;7175;51.978;5.330;2022-07-29T11:05:18;27.60;62.10
14188;DHT22;7175;51.978;5.330;2022-07-29T11:08:19;27.20;61.60
14188;DHT22;7175;51.978;5.330;2022-07-29T11:11:36;28.00;61.30
14188;DHT22;7175;51.978;5.330;2022-07-29T11:14:17;27.70;57.40
14188;DHT22;7175;51.978;5.330;2022-07-29T11:17:01;28.20;57.50
14188;DHT22;7175;51.978;5.330;2022-07-29T11:19:33;27.90;57.40
14188;DHT22;7175;51.978;5.330;2022-07-29T11:22:08;28.20;59.30
14188;DHT22;7175;51.978;5.330;2022-07-29T11:24:37;28.50;56.40
14188;DHT22;7175;51.978;5.330;2022-07-29T11:27:17;28.20;54.30
14188;DHT22;7175;51.978;5.330;2022-07-29T11:29:52;26.90;56.90
14188;DHT22;7175;51.978;5.330;2022-07-29T11:32:23;27.00;56.80
14188;DHT22;7175;51.978;5.330;2022-07-29T11:35:14;28.40;57.10
14188;DHT22;7175;51.978;5.330;2022-07-29T11:38:23;28.50;53.10
14188;DHT22;7175;51.978;5.330;2022-07-29T11:40:37;28.00;55.50
14188;DHT22;7175;51.978;5.330;2022-07-29T11:43:08;28.20;55.60
14188;DHT22;7175;51.978;5.330;2022-07-29T11:45:46;28.50;56.10
14188;DHT22;7175;51.978;5.330;2022-07-29T11:48:16;28.50;57.30
14188;DHT22;7175;51.978;5.330;2022-07-29T11:50:58;28.50;57.10
14188;DHT22;7175;51.978;5.330;2022-07-29T11:53:28;28.20;55.60
14188;DHT22;7175;51.978;5.330;2022-07-29T11:55:59;28.40;56.00
14188;DHT22;7175;51.978;5.330;2022-07-29T11:58:48;27.70;55.30
14188;DHT22;7175;51.978;5.330;2022-07-29T12:01:18;28.00;55.50
14188;DHT22;7175;51.978;5.330;2022-07-29T12:04:02;28.20;56.20
14188;DHT22;7175;51.978;5.330;2022-07-29T12:06:32;28.40;56.10
14188;DHT22;7175;51.978;5.330;2022-07-29T12:09:08;28.50;56.20
14188;DHT22;7175;51.978;5.330;2022-07-29T12:11:40;28.70;55.90
14188;DHT22;7175;51.978;5.330;2022-07-29T12:14:28;29.20;53.60
14188;DHT22;7175;51.978;5.330;2022-07-29T12:16:57;28.50;54.20
14188;DHT22;7175;51.978;5.330;2022-07-29T12:19:26;28.70;54.90
14188;DHT22;7175;51.978;5.330;2022-07-29T12:21:57;28.70;55.60
14188;DHT22;7175;51.978;5.330;2022-07-29T12:24:42;29.10;56.30
14188;DHT22;7175;51.978;5.330;2022-07-29T12:27:12;29.40;55.10
14188;DHT22;7175;51.978;5.330;2022-07-29T12:29:58;29.10;52.60
14188;DHT22;7175;51.978;5.330;2022-07-29T12:32:31;28.90;54.10
14188;DHT22;7175;51.978;5.330;2022-07-29T12:35:04;28.90;52.50
14188;DHT22;7175;51.978;5.330;2022-07-29T12:37:33;28.30;54.80
14188;DHT22;7175;51.978;5.330;2022-07-29T12:40:11;28.30;53.90
14188;DHT22;7175;51.978;5.330;2022-07-29T12:42:39;28.50;54.90
14188;DHT22;7175;51.978;5.330;2022-07-29T12:45:08;28.80;54.10
14188;DHT22;7175;51.978;5.330;2022-07-29T12:47:51;29.80;54.90
14188;DHT22;7175;51.978;5.330;2022-07-29T12:50:19;29.90;52.60
14188;DHT22;7175;51.978;5.330;2022-07-29T12:52:52;28.30;53.90
14188;DHT22;7175;51.978;5.330;2022-07-29T12:55:42;29.40;52.60
14188;DHT22;7175;51.978;5.330;2022-07-29T12:58:11;30.00;52.40
14188;DHT22;7175;51.978;5.330;2022-07-29T13:00:40;30.30;50.20
14188;DHT22;7175;51.978;5.330;2022-07-29T13:03:08;30.00;52.10
14188;DHT22;7175;51.978;5.330;2022-07-29T13:05:42;30.70;54.10
14188;DHT22;7175;51.978;5.330;2022-07-29T13:08:16;30.60;51.40
14188;DHT22;7175;51.978;5.330;2022-07-29T13:10:50;29.70;54.20
14188;DHT22;7175;51.978;5.330;2022-07-29T13:13:18;29.30;53.10
14188;DHT22;7175;51.978;5.330;2022-07-29T13:15:46;28.90;55.40
14188;DHT22;7175;51.978;5.330;2022-07-29T13:18:34;30.20;56.90
14188;DHT22;7175;51.978;5.330;2022-07-29T13:21:11;29.60;53.20
14188;DHT22;7175;51.978;5.330;2022-07-29T13:23:40;30.20;54.20
14188;DHT22;7175;51.978;5.330;2022-07-29T13:26:10;31.40;54.70
14188;DHT22;7175;51.978;5.330;2022-07-29T13:28:39;30.40;54.20
14188;DHT22;7175;51.978;5.330;2022-07-29T13:31:10;28.40;56.30
14188;DHT22;7175;51.978;5.330;2022-07-29T13:33:38;27.80;56.50
14188;DHT22;7175;51.978;5.330;2022-07-29T13:36:07;28.10;58.00
14188;DHT22;7175;51.978;5.330;2022-07-29T13:38:35;27.90;58.50
14188;DHT22;7175;51.978;5.330;2022-07-29T13:41:04;27.70;62.00
14188;DHT22;7175;51.978;5.330;2022-07-29T13:43:34;27.60;64.10
14188;DHT22;7175;51.978;5.330;2022-07-29T13:46:03;27.60;64.30
14188;DHT22;7175;51.978;5.330;2022-07-29T13:48:31;27.50;64.70
14188;DHT22;7175;51.978;5.330;2022-07-29T13:51:00;27.30;63.60
14188;DHT22;7175;51.978;5.330;2022-07-29T13:53:29;27.00;62.00
14188;DHT22;7175;51.978;5.330;2022-07-29T13:55:57;27.60;63.30
14188;DHT22;7175;51.978;5.330;2022-07-29T13:58:25;28.00;59.30
14188;DHT22;7175;51.978;5.330;2022-07-29T14:00:55;28.70;60.50
14188;DHT22;7175;51.978;5.330;2022-07-29T14:03:23;29.50;57.70
14188;DHT22;7175;51.978;5.330;2022-07-29T14:05:52;29.90;58.00
14188;DHT22;7175;51.978;5.330;2022-07-29T14:08:20;30.80;54.90
14188;DHT22;7175;51.978;5.330;2022-07-29T14:11:15;31.00;52.40
14188;DHT22;7175;51.978;5.330;2022-07-29T14:13:44;30.80;52.70
14188;DHT22;7175;51.978;5.330;2022-07-29T14:16:15;31.40;54.10
14188;DHT22;7175;51.978;5.330;2022-07-29T14:18:43;32.10;51.90
14188;DHT22;7175;51.978;5.330;2022-07-29T14:21:12;32.70;50.90
14188;DHT22;7175;51.978;5.330;2022-07-29T14:23:45;32.40;48.00
14188;DHT22;7175;51.978;5.330;2022-07-29T14:26:15;32.10;47.90
14188;DHT22;7175;51.978;5.330;2022-07-29T14:28:57;30.80;49.80
14188;DHT22;7175;51.978;5.330;2022-07-29T14:31:28;30.60;49.00
14188;DHT22;7175;51.978;5.330;2022-07-29T14:33:56;31.30;48.40
14188;DHT22;7175;51.978;5.330;2022-07-29T14:36:30;31.80;50.30
14188;DHT22;7175;51.978;5.330;2022-07-29T14:38:58;31.90;47.80
14188;DHT22;7175;51.978;5.330;2022-07-29T14:41:26;31.90;48.20
14188;DHT22;7175;51.978;5.330;2022-07-29T14:43:56;31.70;48.60
14188;DHT22;7175;51.978;5.330;2022-07-29T14:46:28;31.40;46.90
14188;DHT22;7175;51.978;5.330;2022-07-29T14:48:57;31.40;47.50
14188;DHT22;7175;51.978;5.330;2022-07-29T14:51:25;31.00;47.00
14188;DHT22;7175;51.978;5.330;2022-07-29T14:53:58;30.10;47.10
14188;DHT22;7175;51.978;5.330;2022-07-29T14:56:27;30.40;49.90
14188;DHT22;7175;51.978;5.330;2022-07-29T14:59:12;30.90;50.10
14188;DHT22;7175;51.978;5.330;2022-07-29T15:01:43;30.50;48.60
14188;DHT22;7175;51.978;5.330;2022-07-29T15:04:11;29.50;49.50
14188;DHT22;7175;51.978;5.330;2022-07-29T15:06:40;28.80;51.40
14188;DHT22;7175;51.978;5.330;2022-07-29T15:09:08;28.30;53.30
14188;DHT22;7175;51.978;5.330;2022-07-29T15:11:37;28.60;52.70
14188;DHT22;7175;51.978;5.330;2022-07-29T15:14:06;28.50;52.20
14188;DHT22;7175;51.978;5.330;2022-07-29T15:16:35;28.90;53.40
14188;DHT22;7175;51.978;5.330;2022-07-29T15:19:05;29.10;52.20
14188;DHT22;7175;51.978;5.330;2022-07-29T15:21:33;29.40;51.90
14188;DHT22;7175;51.978;5.330;2022-07-29T15:24:13;28.80;52.60
14188;DHT22;7175;51.978;5.330;2022-07-29T15:26:44;28.90;52.90
14188;DHT22;7175;51.978;5.330;2022-07-29T15:29:12;29.10;52.20
14188;DHT22;7175;51.978;5.330;2022-07-29T15:31:41;28.90;50.70
14188;DHT22;7175;51.978;5.330;2022-07-29T15:34:11;28.50;50.90
14188;DHT22;7175;51.978;5.330;2022-07-29T15:36:40;28.40;51.90
14188;DHT22;7175;51.978;5.330;2022-07-29T15:39:18;28.60;51.40
14188;DHT22;7175;51.978;5.330;2022-07-29T15:41:47;28.40;52.60
14188;DHT22;7175;51.978;5.330;2022-07-29T15:44:15;28.50;53.00
14188;DHT22;7175;51.978;5.330;2022-07-29T15:46:44;28.20;52.60
14188;DHT22;7175;51.978;5.330;2022-07-29T15:49:32;27.90;52.40
14188;DHT22;7175;51.978;5.330;2022-07-29T15:52:16;27.70;53.10
14188;DHT22;7175;51.978;5.330;2022-07-29T15:54:53;27.60;52.50
14188;DHT22;7175;51.978;5.330;2022-07-29T15:57:22;27.50;52.80
14188;DHT22;7175;51.978;5.330;2022-07-29T15:59:50;27.40;52.80
14188;DHT22;7175;51.978;5.330;2022-07-29T16:02:19;27.20;53.00
14188;DHT22;7175;51.978;5.330;2022-07-29T16:04:49;27.10;54.40
14188;DHT22;7175;51.978;5.330;2022-07-29T16:07:18;27.10;53.70
14188;DHT22;7175;51.978;5.330;2022-07-29T16:09:46;27.00;55.30
14188;DHT22;7175;51.978;5.330;2022-07-29T16:12:19;26.90;54.80
14188;DHT22;7175;51.978;5.330;2022-07-29T16:14:47;26.90;53.60
14188;DHT22;7175;51.978;5.330;2022-07-29T16:17:18;26.70;52.40
14188;DHT22;7175;51.978;5.330;2022-07-29T16:19:49;26.60;51.30
14188;DHT22;7175;51.978;5.330;2022-07-29T16:22:24;26.60;53.40
14188;DHT22;7175;51.978;5.330;2022-07-29T16:25:00;26.60;52.40
14188;DHT22;7175;51.978;5.330;2022-07-29T16:27:28;26.40;51.80
14188;DHT22;7175;51.978;5.330;2022-07-29T16:30:05;26.40;51.60